Glenn, Michigan
Current Conditions -  °F | °C
As of 3:35 AM on Friday 31 Oct 2014 (Local Time) from KLWA Reporting Station
Light Rain Light Rain  
Wind Chill: 44°   Ceiling: 2400
Heat Index: 49°   Visibility: 10mi
Dew Point: 41°   Wind: 14mph
Humidity: 75%   Direction: 330°NNW
Pressure: 29.96"   Gusts: 24mph
Location:  42.52°N, 86.23°W
Report Text: KLWA 310735Z AUTO 33012G21KT 10SM -RA SCT019 BKN024 OVC048 09/05 A2996 RMK AO2 T00940052
Loading
Personal Weather Stations






























Interactive Weather Map
Tropical Storm Tracking
New forecast layout! Learn more

10-Day Weather Forecast

Advertisements
Track Severe Weather on mobile